Terminal Aerodrome Forecast
Issued by NWS

Home | Current Version | Previous Version | Text Only | Print | Product List | Glossary Off
Versions: 1 2 3 4 5 6 7 8 9 10 11 12 13 14 15 16 17 18 19 20 21

000
FTUS43 KMPX 252327
TAFRWF
TAF
KRWF 252327Z 2600/2624 36006KT 6SM -SHRA BR OVC015
     FM260300 36006KT 3SM -SHRA BR OVC008
     FM260800 32007KT 4SM -SHRA BR OVC008
     FM261200 32007KT 6SM BR OVC006
     FM261700 31009KT P6SM BKN015
     FM262100 30011G18KT P6SM BKN025=

USA.gov is the U.S. government's official web portal to all federal, state and local government web resources and services.